Time;durP1;ratioP1;P1;durP2;ratioP2;P2;SDS_P1;SDS_P2;PMS_P1;PMS_P2;Temp;Humidity;BMP_temperature;BMP_pressure;BME280_temperature;BME280_humidity;BME280_pressure;Samples;Min_cycle;Max_cycle;Signal;HPM_P1;HPM_P2
2021/08/15 00:00:31;;;;;;;9.03;6.20;;;;;;;29.87;60.57;98116.63;5017207;28;20227;-68
2021/08/15 00:02:58;;;;;;;8.50;6.70;;;;;;;29.93;59.86;98109.84;5018050;28;20238;-67
2021/08/15 00:05:26;;;;;;;10.90;6.40;;;;;;;29.80;60.34;98110.81;5013014;28;20226;-67
2021/08/15 00:07:55;;;;;;;11.47;7.17;;;;;;;29.73;61.16;98105.78;5009396;28;20207;-67
2021/08/15 00:10:22;;;;;;;11.03;7.37;;;;;;;29.82;60.42;98100.28;5019486;28;20226;-67
2021/08/15 00:12:50;;;;;;;12.50;6.43;;;;;;;29.98;59.53;98101.41;5014819;28;20207;-67
2021/08/15 00:15:19;;;;;;;10.67;7.13;;;;;;;29.89;59.71;98097.88;5009962;28;20210;-68
2021/08/15 00:17:46;;;;;;;12.90;7.20;;;;;;;29.74;60.19;98099.13;5022780;28;20269;-68
2021/08/15 00:20:14;;;;;;;9.77;6.53;;;;;;;29.60;61.59;98092.97;5014741;28;20613;-68
2021/08/15 00:22:42;;;;;;;8.57;6.57;;;;;;;29.70;60.81;98094.59;5020624;28;20212;-67
2021/08/15 00:25:12;;;;;;;12.57;6.13;;;;;;;29.57;61.16;98090.88;5006992;28;20207;-67
2021/08/15 00:27:40;;;;;;;8.27;6.80;;;;;;;29.29;62.59;98089.47;5026622;22;20243;-70
2021/08/15 00:30:08;;;;;;;10.93;7.43;;;;;;;29.32;62.28;98086.09;5022879;28;20289;-77
2021/08/15 00:32:36;;;;;;;9.73;6.70;;;;;;;29.63;61.02;98086.81;5021854;28;20206;-77
2021/08/15 00:35:05;;;;;;;11.20;6.77;;;;;;;29.73;59.99;98086.50;5032059;28;20207;-78
2021/08/15 00:37:32;;;;;;;9.23;6.60;;;;;;;29.77;59.46;98081.16;5007078;28;20239;-77
2021/08/15 00:39:59;;;;;;;9.00;7.10;;;;;;;29.61;60.38;98085.53;5006169;28;20583;-77
2021/08/15 00:42:28;;;;;;;9.00;6.20;;;;;;;29.64;59.82;98084.91;5002036;28;20207;-78
2021/08/15 00:44:56;;;;;;;10.67;7.17;;;;;;;29.66;60.14;98077.94;5003825;28;20664;-77
2021/08/15 00:47:23;;;;;;;9.40;6.57;;;;;;;29.69;60.08;98074.53;5008783;28;20311;-77
2021/08/15 00:49:51;;;;;;;8.43;6.40;;;;;;;29.45;60.93;98065.09;5012281;28;20194;-78
2021/08/15 00:52:18;;;;;;;11.97;6.70;;;;;;;29.40;61.30;98073.50;5002678;28;20291;-77
2021/08/15 00:54:45;;;;;;;9.43;7.47;;;;;;;29.10;63.11;98074.38;5008488;28;20229;-77
2021/08/15 00:57:13;;;;;;;8.30;6.87;;;;;;;29.41;61.65;98069.59;5007584;28;20754;-80
2021/08/15 00:59:41;;;;;;;9.60;6.80;;;;;;;29.30;61.74;98062.78;5010974;28;20585;-78
2021/08/15 01:02:09;;;;;;;10.47;7.10;;;;;;;29.45;60.92;98065.09;5012458;28;20203;-79
2021/08/15 01:04:38;;;;;;;8.43;6.13;;;;;;;29.52;60.47;98062.66;5005348;28;20214;-78
2021/08/15 01:07:06;;;;;;;9.23;6.43;;;;;;;29.58;59.96;98064.97;5012346;28;20579;-79
2021/08/15 01:09:34;;;;;;;9.73;6.40;;;;;;;29.41;60.82;98056.69;5009739;28;20222;-80
2021/08/15 01:12:02;;;;;;;9.00;6.80;;;;;;;29.40;60.95;98062.50;5002725;28;20207;-78
2021/08/15 01:14:29;;;;;;;11.07;6.93;;;;;;;29.36;60.87;98056.00;5004235;28;20215;-78
2021/08/15 01:16:58;;;;;;;7.60;6.60;;;;;;;29.31;61.45;98051.47;5011992;28;20314;-78
2021/08/15 01:19:30;;;;;;;8.67;6.90;;;;;;;29.32;61.15;98053.09;5011389;28;20222;-78
2021/08/15 01:21:58;;;;;;;12.00;6.87;;;;;;;29.30;61.65;98044.34;5003203;28;20207;-79
2021/08/15 01:24:26;;;;;;;9.67;6.73;;;;;;;29.28;62.03;98045.78;5009959;28;20203;-78
2021/08/15 01:26:56;;;;;;;10.83;7.07;;;;;;;29.13;62.68;98046.25;5009568;28;20227;-78
2021/08/15 01:29:25;;;;;;;11.23;6.83;;;;;;;29.10;63.03;98042.22;5008473;28;20278;-78
2021/08/15 01:31:52;;;;;;;9.57;6.80;;;;;;;29.14;62.88;98045.91;5009069;28;20203;-78
2021/08/15 01:34:20;;;;;;;9.23;6.83;;;;;;;28.98;63.84;98044.75;5005347;28;20663;-79
2021/08/15 01:36:47;;;;;;;9.10;7.00;;;;;;;29.12;62.94;98034.44;5005371;28;20221;-79
2021/08/15 01:39:14;;;;;;;9.87;7.43;;;;;;;28.99;63.45;98040.06;5012465;28;20238;-78
2021/08/15 01:41:42;;;;;;;10.00;6.70;;;;;;;29.08;62.77;98043.66;5006176;28;20295;-78
2021/08/15 01:44:09;;;;;;;9.00;6.70;;;;;;;29.11;62.30;98035.56;5010543;28;20206;-78
2021/08/15 01:46:38;;;;;;;10.60;7.50;;;;;;;29.18;62.14;98033.16;5009455;28;20223;-78
2021/08/15 01:49:05;;;;;;;9.90;7.23;;;;;;;29.09;62.80;98040.56;5012427;28;20214;-78
2021/08/15 01:51:32;;;;;;;10.17;7.13;;;;;;;29.19;62.36;98033.97;5001777;28;20204;-79
2021/08/15 01:54:02;;;;;;;11.53;7.40;;;;;;;28.99;63.07;98034.56;5014565;28;20206;-78
2021/08/15 01:56:30;;;;;;;8.67;7.33;;;;;;;28.73;64.96;98028.94;5007085;28;20223;-77
2021/08/15 01:58:57;;;;;;;11.03;7.10;;;;;;;28.89;63.55;98034.81;5015879;28;20230;-78
2021/08/15 02:01:25;;;;;;;12.23;6.83;;;;;;;28.76;64.09;98030.25;5012131;28;20222;-78
2021/08/15 02:03:54;;;;;;;11.00;7.33;;;;;;;28.93;62.97;98033.06;4997569;28;20218;-78
2021/08/15 02:06:21;;;;;;;9.10;7.10;;;;;;;28.60;64.71;98029.88;5008240;28;20580;-78
2021/08/15 02:08:50;;;;;;;10.83;6.80;;;;;;;28.70;64.32;98028.75;5006804;28;20208;-78
2021/08/15 02:11:18;;;;;;;10.30;6.90;;;;;;;28.76;63.99;98027.50;5001457;28;20271;-77
2021/08/15 02:13:45;;;;;;;9.00;6.83;;;;;;;28.65;64.64;98024.22;5014032;28;20199;-78
2021/08/15 02:16:13;;;;;;;10.47;7.27;;;;;;;28.73;63.91;98025.41;5003955;28;20230;-78
2021/08/15 02:18:41;;;;;;;11.17;7.67;;;;;;;28.72;63.63;98023.75;5006172;28;20211;-78
2021/08/15 02:21:09;;;;;;;10.53;7.10;;;;;;;28.74;63.75;98025.06;5010045;28;20219;-79
2021/08/15 02:23:37;;;;;;;10.67;7.33;;;;;;;28.65;64.28;98031.66;5014451;28;20219;-79
2021/08/15 02:26:04;;;;;;;11.50;6.87;;;;;;;28.71;64.08;98027.63;5009343;28;20238;-77
2021/08/15 02:28:32;;;;;;;9.63;7.20;;;;;;;28.71;64.25;98036.69;5013911;28;20206;-79
2021/08/15 02:30:59;;;;;;;10.37;7.70;;;;;;;28.72;64.05;98026.50;4998315;28;20208;-78
2021/08/15 02:33:26;;;;;;;10.93;7.07;;;;;;;28.66;64.37;98030.53;5015290;28;20212;-78
2021/08/15 02:35:54;;;;;;;12.23;7.53;;;;;;;28.51;65.14;98025.44;5007840;28;20231;-78
2021/08/15 02:38:23;;;;;;;10.03;7.00;;;;;;;28.33;66.23;98026.44;5015053;28;20221;-78
2021/08/15 02:40:51;;;;;;;12.80;7.90;;;;;;;28.46;65.49;98028.31;5012497;28;20311;-78
2021/08/15 02:43:18;;;;;;;9.57;7.23;;;;;;;28.56;64.91;98030.78;5004120;28;20215;-78
2021/08/15 02:45:46;;;;;;;9.70;7.33;;;;;;;28.66;64.13;98034.09;5009454;28;20239;-78
2021/08/15 02:48:13;;;;;;;12.07;7.67;;;;;;;28.65;64.26;98028.91;5014572;28;20800;-78
2021/08/15 02:50:41;;;;;;;10.30;6.97;;;;;;;28.71;63.86;98042.19;5003642;28;20203;-78
2021/08/15 02:53:08;;;;;;;11.67;7.93;;;;;;;28.62;64.42;98033.09;5002717;28;20215;-79
2021/08/15 02:55:37;;;;;;;12.30;7.60;;;;;;;28.42;65.90;98039.13;5006048;28;20809;-78
2021/08/15 02:58:04;;;;;;;8.10;6.97;;;;;;;28.49;65.20;98036.75;5014370;28;20208;-78
2021/08/15 03:00:32;;;;;;;9.97;7.43;;;;;;;28.60;64.53;98032.59;5004879;28;20237;-79
2021/08/15 03:02:59;;;;;;;8.27;6.83;;;;;;;28.45;65.12;98035.75;5018489;28;20203;-79
2021/08/15 03:05:27;;;;;;;10.57;7.33;;;;;;;28.45;65.01;98026.69;5001911;28;20243;-79
2021/08/15 03:07:54;;;;;;;10.17;7.23;;;;;;;28.24;65.83;98031.06;5009392;28;20234;-78
2021/08/15 03:10:21;;;;;;;11.17;8.33;;;;;;;28.46;64.79;98036.56;5005163;28;20245;-78
2021/08/15 03:12:50;;;;;;;9.87;7.73;;;;;;;28.46;64.47;98042.03;5001743;28;20203;-78
2021/08/15 03:15:17;;;;;;;13.67;7.80;;;;;;;28.49;64.57;98033.19;5013858;28;20652;-78
2021/08/15 03:17:45;;;;;;;11.00;7.63;;;;;;;28.22;66.16;98030.59;5011108;28;20232;-78
2021/08/15 03:20:14;;;;;;;11.20;7.13;;;;;;;28.34;65.33;98028.06;5013705;28;20924;-78
2021/08/15 03:22:41;;;;;;;9.47;7.30;;;;;;;28.43;65.22;98028.97;5006742;28;20215;-79
2021/08/15 03:25:09;;;;;;;9.87;7.27;;;;;;;28.42;65.22;98019.91;5006406;28;20222;-79
2021/08/15 03:27:36;;;;;;;13.33;7.90;;;;;;;28.46;65.15;98022.81;5006003;28;20224;-78
2021/08/15 03:30:06;;;;;;;13.60;7.93;;;;;;;28.29;66.13;98008.97;5013601;28;20199;-78
2021/08/15 03:32:33;;;;;;;10.57;7.60;;;;;;;28.30;66.45;98010.59;5004101;28;20200;-78
2021/08/15 03:35:01;;;;;;;11.77;8.07;;;;;;;28.48;65.29;98015.09;5013437;28;20196;-77
2021/08/15 03:37:28;;;;;;;11.90;7.73;;;;;;;28.24;66.40;98006.38;5010116;28;20574;-77
2021/08/15 03:39:55;;;;;;;10.00;8.10;;;;;;;27.99;67.69;98005.09;5006563;28;20227;-79
2021/08/15 03:42:22;;;;;;;13.93;8.20;;;;;;;28.12;67.39;97998.72;5003565;28;20499;-77
2021/08/15 03:44:50;;;;;;;11.27;7.93;;;;;;;28.12;67.58;98003.41;4999063;28;20203;-78
2021/08/15 03:47:19;;;;;;;11.87;8.23;;;;;;;28.19;67.03;98001.00;4999332;28;20222;-78
2021/08/15 03:49:46;;;;;;;10.27;7.97;;;;;;;28.15;66.94;98002.75;5012057;28;20210;-78
2021/08/15 03:52:13;;;;;;;9.33;7.70;;;;;;;28.12;67.03;98008.91;5012897;28;20693;-79
2021/08/15 03:54:42;;;;;;;13.47;8.00;;;;;;;28.04;67.63;97998.66;5008537;28;20208;-78
2021/08/15 03:57:09;;;;;;;12.00;8.27;;;;;;;28.17;66.67;98003.28;5006108;28;20246;-78
2021/08/15 03:59:36;;;;;;;10.73;7.80;;;;;;;28.26;65.52;98002.19;5003038;28;20230;-78
2021/08/15 04:02:04;;;;;;;11.13;7.87;;;;;;;28.12;66.16;98004.19;5011537;28;20298;-78
2021/08/15 04:04:32;;;;;;;15.13;7.57;;;;;;;28.03;66.78;97999.78;5005160;28;20196;-77
2021/08/15 04:06:59;;;;;;;9.43;8.27;;;;;;;27.73;68.57;97997.75;5002977;28;20261;-78
2021/08/15 04:09:27;;;;;;;12.43;7.80;;;;;;;28.03;66.51;97997.84;5012967;28;20285;-78
2021/08/15 04:11:54;;;;;;;10.70;7.77;;;;;;;27.96;66.82;97991.16;5007609;28;20220;-78
2021/08/15 04:14:22;;;;;;;10.27;7.50;;;;;;;28.02;66.71;97985.25;5009857;28;20819;-79
2021/08/15 04:16:49;;;;;;;11.40;7.43;;;;;;;28.00;66.94;97994.91;5006192;28;20244;-79
2021/08/15 04:19:17;;;;;;;10.10;7.70;;;;;;;27.97;66.78;97996.34;5008702;28;20204;-79
2021/08/15 04:21:45;;;;;;;15.53;8.33;;;;;;;27.84;68.38;97996.44;5012337;28;20199;-79
2021/08/15 04:24:13;;;;;;;9.53;7.90;;;;;;;27.93;67.38;97992.59;5006717;28;20213;-79
2021/08/15 04:26:43;;;;;;;11.30;8.17;;;;;;;28.00;66.85;97984.75;5006455;28;20325;-79
2021/08/15 04:29:10;;;;;;;9.20;7.50;;;;;;;28.12;66.10;97987.72;5009050;28;20227;-79
2021/08/15 04:31:38;;;;;;;12.37;7.90;;;;;;;28.12;66.33;97989.69;5010973;28;20532;-79
2021/08/15 04:34:05;;;;;;;14.47;8.30;;;;;;;28.12;66.24;97984.19;5004783;28;20229;-79
2021/08/15 04:36:32;;;;;;;13.53;8.30;;;;;;;28.26;65.81;97982.97;5012568;28;20262;-79
2021/08/15 04:39:01;;;;;;;13.13;8.37;;;;;;;28.34;65.59;97979.47;5004670;28;20213;-78
2021/08/15 04:41:29;;;;;;;12.13;8.90;;;;;;;27.94;67.67;97982.44;5009458;28;20611;-79
2021/08/15 04:43:56;;;;;;;11.57;8.23;;;;;;;28.22;66.36;97981.19;5013043;28;20209;-78
2021/08/15 04:46:23;;;;;;;12.20;8.73;;;;;;;28.49;65.03;97983.75;5012186;28;20778;-78
2021/08/15 04:48:51;;;;;;;16.70;8.73;;;;;;;28.42;65.58;97986.97;5011951;28;20215;-79
2021/08/15 04:51:18;;;;;;;13.80;8.57;;;;;;;28.34;66.32;97987.72;4996953;28;20238;-78
2021/08/15 04:53:45;;;;;;;10.93;7.93;;;;;;;28.35;65.77;97977.53;5011555;28;20205;-78
2021/08/15 04:56:14;;;;;;;15.20;9.30;;;;;;;28.60;65.59;97982.34;5011717;28;20715;-78
2021/08/15 04:58:41;;;;;;;10.83;8.30;;;;;;;28.60;65.40;97990.59;5012362;28;20207;-78
2021/08/15 05:01:11;;;;;;;11.67;8.70;;;;;;;28.58;66.04;97993.66;5007808;28;20238;-77
2021/08/15 05:03:39;;;;;;;13.87;9.03;;;;;;;28.72;65.54;97997.09;5010169;28;20218;-78
2021/08/15 05:06:06;;;;;;;12.87;8.13;;;;;;;28.76;65.21;98005.50;5012155;28;20714;-78
2021/08/15 05:08:33;;;;;;;10.40;8.27;;;;;;;28.88;64.80;98012.03;5003278;28;20204;-78
2021/08/15 05:11:01;;;;;;;13.47;8.43;;;;;;;28.99;64.65;98005.13;5002965;28;20204;-77
2021/08/15 05:13:29;;;;;;;13.77;8.00;;;;;;;29.19;63.85;98010.03;5004394;28;20576;-78
2021/08/15 05:15:57;;;;;;;11.97;8.63;;;;;;;29.20;63.25;98005.34;5012111;28;20722;-78
2021/08/15 05:18:24;;;;;;;13.33;8.27;;;;;;;29.33;61.91;98007.13;5008982;28;20204;-76
2021/08/15 05:20:51;;;;;;;13.47;8.10;;;;;;;29.61;60.72;98009.31;5005440;28;20227;-78
2021/08/15 05:23:19;;;;;;;11.43;8.17;;;;;;;29.69;60.38;98007.69;5008078;28;20679;-79
2021/08/15 05:25:46;;;;;;;11.50;8.10;;;;;;;30.04;59.47;98012.03;5009375;28;20203;-78
2021/08/15 05:28:14;;;;;;;11.60;7.47;;;;;;;30.24;58.01;98012.19;5019906;28;20286;-79
2021/08/15 05:30:42;;;;;;;12.83;8.80;;;;;;;30.49;56.37;98013.25;5014064;28;20204;-79
2021/08/15 05:33:09;;;;;;;11.07;8.53;;;;;;;30.47;56.06;98012.78;5013080;28;20299;-79
2021/08/15 05:35:37;;;;;;;9.87;8.30;;;;;;;30.26;56.82;98017.38;5012891;28;20213;-80
2021/08/15 05:38:04;;;;;;;14.43;9.10;;;;;;;30.46;56.02;98025.72;5009425;28;20728;-81
2021/08/15 05:40:31;;;;;;;11.73;8.17;;;;;;;30.15;57.02;98018.84;5012817;28;20315;-78
2021/08/15 05:42:59;;;;;;;11.50;7.97;;;;;;;30.45;55.94;98029.63;5015061;28;20291;-79
2021/08/15 05:45:26;;;;;;;9.90;7.87;;;;;;;30.58;55.05;98034.13;5005916;28;20214;-80
2021/08/15 05:47:55;;;;;;;12.40;8.07;;;;;;;30.48;55.77;98025.41;5013576;28;20267;-80
2021/08/15 05:50:23;;;;;;;13.07;8.43;;;;;;;30.54;55.19;98027.66;5000661;28;20211;-81
2021/08/15 05:52:50;;;;;;;11.43;7.90;;;;;;;30.92;54.40;98022.19;5008346;28;20217;-87
2021/08/15 05:55:18;;;;;;;12.67;8.50;;;;;;;30.99;54.78;98028.00;5007622;28;20675;-84
2021/08/15 05:57:46;;;;;;;11.90;8.37;;;;;;;31.22;53.39;98021.88;5039178;28;20223;-85
2021/08/15 06:00:14;;;;;;;10.33;7.70;;;;;;;30.84;54.14;98028.53;5011649;28;20221;-88
2021/08/15 06:02:43;;;;;;;11.40;8.20;;;;;;;30.93;54.36;98019.13;5026244;28;20245;-81
2021/08/15 06:05:13;;;;;;;13.37;8.40;;;;;;;31.39;52.76;98023.72;5020038;28;20230;-81
2021/08/15 06:07:40;;;;;;;10.67;8.63;;;;;;;31.36;51.86;98018.91;5029768;28;20249;-80
2021/08/15 06:10:09;;;;;;;13.03;8.47;;;;;;;30.88;54.84;98008.28;5014951;28;20273;-80
2021/08/15 06:12:37;;;;;;;12.60;8.80;;;;;;;31.32;53.82;98009.66;5009742;28;20210;-77
2021/08/15 06:15:07;;;;;;;12.53;9.17;;;;;;;31.54;52.13;98006.56;5034226;28;20270;-82
2021/08/15 06:17:34;;;;;;;11.10;7.83;;;;;;;31.79;50.97;98008.34;5019937;28;20315;-75
2021/08/15 06:20:01;;;;;;;11.67;8.40;;;;;;;31.62;51.35;98000.19;5009959;28;20658;-75
2021/08/15 06:22:30;;;;;;;12.10;8.97;;;;;;;30.11;56.98;98002.16;5007701;28;20211;-76
2021/08/15 06:24:57;;;;;;;11.53;8.50;;;;;;;30.89;54.47;98000.78;5014966;28;20210;-78
2021/08/15 06:27:24;;;;;;;10.33;8.17;;;;;;;31.77;50.75;98007.91;5037246;22;20238;-70
2021/08/15 06:29:52;;;;;;;12.57;8.17;;;;;;;31.11;52.59;97997.78;5024354;28;20220;-70
2021/08/15 06:32:19;;;;;;;15.83;8.13;;;;;;;31.29;52.35;97996.53;5016597;28;20710;-71
2021/08/15 06:34:46;;;;;;;11.57;8.60;;;;;;;30.13;56.51;97988.91;5016108;28;20583;-70
2021/08/15 06:37:13;;;;;;;11.87;8.43;;;;;;;31.68;51.00;97993.31;5013356;28;20737;-70
2021/08/15 06:39:42;;;;;;;12.27;8.73;;;;;;;31.70;51.38;97988.25;5000372;28;20214;-70
2021/08/15 06:42:09;;;;;;;11.35;8.57;;;;;;;31.44;52.02;97995.94;4999787;28;20227;-71
2021/08/15 06:44:37;;;;;;;11.48;8.80;;;;;;;30.60;54.71;97990.53;5006471;28;20241;-71
2021/08/15 06:47:05;;;;;;;13.73;9.20;;;;;;;30.54;55.36;97983.59;5010375;28;20314;-70
2021/08/15 06:49:33;;;;;;;12.63;8.87;;;;;;;31.45;51.11;97992.84;5002624;28;20293;-75
2021/08/15 06:52:01;;;;;;;12.70;8.60;;;;;;;31.11;53.31;97983.97;5003340;28;20568;-73
2021/08/15 06:54:29;;;;;;;11.13;8.45;;;;;;;32.11;49.39;97983.53;4999018;28;20208;-70
2021/08/15 06:56:57;;;;;;;10.60;8.55;;;;;;;30.33;55.39;97977.19;4992420;28;20208;-71
2021/08/15 06:59:25;;;;;;;12.45;8.48;;;;;;;31.08;51.84;97992.91;4998198;28;20217;-71
2021/08/15 07:01:52;;;;;;;13.75;8.30;;;;;;;32.01;49.63;97983.94;4992254;28;20223;-71
2021/08/15 07:04:19;;;;;;;11.90;8.93;;;;;;;31.05;52.51;97977.84;5000867;28;20212;-73
2021/08/15 07:06:46;;;;;;;11.95;8.65;;;;;;;31.98;49.48;97986.59;5011227;28;20210;-72
2021/08/15 07:09:14;;;;;;;13.55;9.27;;;;;;;32.67;46.88;97988.28;4999876;28;20451;-71
2021/08/15 07:11:41;;;;;;;10.85;8.27;;;;;;;33.07;45.72;97992.00;4994179;28;20200;-73
2021/08/15 07:14:14;;;;;;;10.68;8.18;;;;;;;32.72;45.80;97995.53;4993321;28;20210;-77
2021/08/15 07:16:42;;;;;;;11.88;8.63;;;;;;;31.91;48.81;97983.56;5005363;28;20196;-76
2021/08/15 07:19:09;;;;;;;11.70;8.60;;;;;;;31.20;52.00;97970.97;4990295;28;20208;-74
2021/08/15 07:21:36;;;;;;;12.77;8.48;;;;;;;32.51;47.57;97981.00;4995399;28;20227;-75
2021/08/15 07:24:04;;;;;;;17.60;9.63;;;;;;;31.69;50.49;97968.16;5005734;28;20294;-73
2021/08/15 07:26:31;;;;;;;12.48;9.18;;;;;;;31.70;51.59;97967.00;5002322;28;20213;-73
2021/08/15 07:28:59;;;;;;;17.08;9.45;;;;;;;32.18;50.56;97971.94;5000581;28;20704;-72
2021/08/15 07:31:27;;;;;;;11.65;9.05;;;;;;;31.08;54.49;97965.34;5004537;28;20657;-73
2021/08/15 07:33:55;;;;;;;13.18;9.07;;;;;;;33.04;48.66;97965.03;4986306;28;20236;-74
2021/08/15 07:36:24;;;;;;;11.80;9.05;;;;;;;31.85;52.97;97957.31;4985926;28;20211;-70
2021/08/15 07:38:51;;;;;;;12.90;9.05;;;;;;;32.70;50.79;97964.66;4992339;28;20238;-73
2021/08/15 07:41:18;;;;;;;15.23;9.60;;;;;;;32.93;48.40;97966.66;4989062;28;20228;-72
2021/08/15 07:43:47;;;;;;;11.57;9.23;;;;;;;31.80;52.80;97963.84;4993246;28;20243;-75
2021/08/15 07:46:15;;;;;;;13.40;9.60;;;;;;;31.37;54.68;97966.13;5002635;28;20692;-74
2021/08/15 07:48:44;;;;;;;12.05;9.30;;;;;;;31.92;52.58;97972.19;4993078;28;20223;-74
2021/08/15 07:51:11;;;;;;;13.10;9.90;;;;;;;32.21;51.09;97977.56;4996347;28;20708;-76
2021/08/15 07:53:38;;;;;;;12.40;9.27;;;;;;;32.60;48.80;97973.41;4998519;28;20196;-79
2021/08/15 07:56:06;;;;;;;12.30;9.70;;;;;;;33.11;47.69;97973.56;5006126;28;20680;-74
2021/08/15 07:58:35;;;;;;;12.80;9.32;;;;;;;31.80;50.80;97974.09;4999781;28;20583;-76
2021/08/15 08:01:03;;;;;;;10.85;8.98;;;;;;;32.34;49.16;97975.66;4991789;28;20231;-69
2021/08/15 08:03:30;;;;;;;13.13;9.38;;;;;;;31.85;50.83;97977.44;4995345;28;20668;-72
2021/08/15 08:06:02;;;;;;;11.50;9.15;;;;;;;32.31;48.80;97977.16;4999242;28;20204;-74
2021/08/15 08:08:38;;;;;;;12.93;9.90;;;;;;;33.45;45.27;97984.13;5006606;28;20303;-70
2021/08/15 08:11:06;;;;;;;13.13;8.82;;;;;;;32.83;47.70;97971.84;4997216;28;20328;-71
2021/08/15 08:13:33;;;;;;;13.02;9.57;;;;;;;34.31;43.04;97984.28;4997376;28;20203;-72
2021/08/15 08:16:01;;;;;;;14.52;8.88;;;;;;;34.08;43.48;97974.13;5006123;28;20235;-74
2021/08/15 08:18:28;;;;;;;14.82;9.70;;;;;;;32.39;46.83;97965.19;5003493;28;20227;-77
2021/08/15 08:20:56;;;;;;;14.23;8.93;;;;;;;32.17;49.21;97960.06;5001224;28;20233;-75
2021/08/15 08:23:24;;;;;;;13.43;9.05;;;;;;;33.09;45.46;97966.75;5002090;28;20200;-72
2021/08/15 08:25:52;;;;;;;14.45;8.77;;;;;;;-139.38;100.00;63230.50;4993500;28;20208;-71
2021/08/15 08:28:19;;;;;;;11.52;9.05;;;;;;;34.89;40.71;97965.22;4989597;28;20239;-72
2021/08/15 08:30:46;;;;;;;15.05;8.60;;;;;;;35.20;40.51;97968.72;4986837;28;20553;-72
2021/08/15 08:33:14;;;;;;;13.35;8.90;;;;;;;33.61;44.81;97953.75;4996710;28;20215;-72
2021/08/15 08:35:41;;;;;;;12.57;8.60;;;;;;;34.25;42.43;97954.41;4998054;28;20215;-73
2021/08/15 08:38:08;;;;;;;12.45;8.88;;;;;;;33.44;45.46;97946.53;4992457;28;20228;-72
2021/08/15 08:40:37;;;;;;;10.48;8.85;;;;;;;33.19;45.40;97950.47;4986731;28;20211;-72
2021/08/15 08:43:04;;;;;;;12.75;9.48;;;;;;;33.31;45.49;97950.50;4991078;28;20204;-71
2021/08/15 08:45:35;;;;;;;11.63;8.82;;;;;;;34.65;42.08;97952.28;4999004;28;20216;-71
2021/08/15 08:48:04;;;;;;;10.63;8.75;;;;;;;33.85;43.83;97950.94;5000382;28;20246;-76
2021/08/15 08:50:32;;;;;;;10.90;8.52;;;;;;;34.79;41.28;97949.13;4997430;28;20250;-77
2021/08/15 08:52:59;;;;;;;13.93;8.48;;;;;;;34.40;42.51;97948.91;4992952;28;20576;-76
2021/08/15 08:55:27;;;;;;;12.82;8.70;;;;;;;34.06;44.29;97938.44;4997217;28;20220;-79
2021/08/15 08:57:56;;;;;;;9.57;8.55;;;;;;;33.57;44.88;97936.22;5000203;28;20238;-77
2021/08/15 09:00:23;;;;;;;13.38;8.80;;;;;;;33.02;46.95;97925.03;5004088;28;20203;-71
2021/08/15 09:02:50;;;;;;;11.55;8.18;;;;;;;34.96;41.45;97932.09;4997835;28;20227;-72
2021/08/15 09:05:30;;;;;;;13.15;9.45;;;;;;;34.95;40.37;97936.81;4994620;28;20218;-72
2021/08/15 09:07:58;;;;;;;12.68;8.25;;;;;;;35.75;38.89;97928.75;4998474;28;20245;-73
2021/08/15 09:10:32;;;;;;;9.27;7.88;;;;;;;35.61;39.21;97926.44;5005947;28;20708;-73
2021/08/15 09:13:08;;;;;;;12.68;8.93;;;;;;;36.31;38.16;97927.88;4989318;28;20256;-73
2021/08/15 09:15:36;;;;;;;11.27;8.75;;;;;;;34.83;40.90;97927.81;4998075;28;20729;-73
2021/08/15 09:18:04;;;;;;;10.77;8.10;;;;;;;36.22;38.55;97913.41;4991193;28;20223;-73
2021/08/15 09:20:42;;;;;;;9.52;8.05;;;;;;;36.75;37.10;97920.72;4995102;28;20208;-72
2021/08/15 09:23:20;;;;;;;13.95;8.32;;;;;;;34.79;41.22;97915.84;4989561;28;20223;-73
2021/08/15 09:25:48;;;;;;;13.70;8.85;;;;;;;34.61;41.58;97910.63;5005437;28;20237;-71
2021/08/15 09:28:16;;;;;;;11.80;9.27;;;;;;;34.24;43.59;97903.72;4995937;28;20236;-67
2021/08/15 09:30:44;;;;;;;12.27;8.48;;;;;;;34.89;41.42;97893.88;4989175;28;20226;-67
2021/08/15 09:33:17;;;;;;;13.93;8.88;;;;;;;35.23;40.84;97901.41;4997775;28;20206;-67
2021/08/15 09:35:44;;;;;;;11.48;8.45;;;;;;;35.33;39.27;97908.38;5004290;28;20215;-67
2021/08/15 09:38:13;;;;;;;10.95;7.97;;;;;;;36.37;37.25;97908.91;5002785;28;20257;-67
2021/08/15 09:40:42;;;;;;;11.18;8.13;;;;;;;36.78;36.55;97913.59;5003479;28;20208;-67
2021/08/15 09:43:11;;;;;;;11.00;8.48;;;;;;;36.81;36.08;97904.50;5003654;28;20235;-67
2021/08/15 09:45:43;;;;;;;10.65;8.32;;;;;;;36.31;37.04;97897.28;5002633;28;20207;-67
2021/08/15 09:48:28;;;;;;;12.15;8.25;;;;;;;36.25;38.21;97897.97;5003686;28;20235;-67
2021/08/15 09:51:15;;;;;;;9.73;8.27;;;;;;;35.65;39.46;97894.00;4987090;28;20222;-67
2021/08/15 09:53:46;;;;;;;10.70;7.97;;;;;;;35.60;39.65;97899.84;4999676;28;20574;-67
2021/08/15 09:56:13;;;;;;;9.40;7.95;;;;;;;34.14;43.12;97889.56;4994759;28;20249;-67
2021/08/15 09:58:41;;;;;;;12.50;8.25;;;;;;;35.76;39.23;97888.69;5003586;28;20234;-67
2021/08/15 10:01:10;;;;;;;12.18;8.40;;;;;;;36.91;36.74;97901.06;4999309;28;20207;-67
2021/08/15 10:03:41;;;;;;;12.00;8.90;;;;;;;37.03;36.15;97898.09;4999704;28;20208;-67
2021/08/15 10:06:14;;;;;;;13.18;8.25;;;;;;;37.38;36.32;97893.81;4993167;28;20239;-67
2021/08/15 10:08:41;;;;;;;12.88;8.50;;;;;;;36.62;37.17;97896.22;5002126;28;20239;-67
2021/08/15 10:11:08;;;;;;;13.57;8.18;;;;;;;35.99;38.17;97887.53;4999401;28;20203;-67
2021/08/15 10:13:35;;;;;;;10.32;8.00;;;;;;;35.39;39.75;97882.75;5004091;28;20301;-67
2021/08/15 10:16:07;;;;;;;13.25;8.35;;;;;;;36.92;36.54;97877.66;5005658;28;20214;-67
2021/08/15 10:18:39;;;;;;;12.27;8.48;;;;;;;35.92;38.42;97859.63;5005887;28;20235;-67
2021/08/15 10:21:11;;;;;;;11.95;8.50;;;;;;;36.40;38.22;97864.47;5005906;28;20218;-67
2021/08/15 10:23:41;;;;;;;13.60;8.60;;;;;;;36.11;38.19;97873.47;5004717;28;20655;-67
2021/08/15 10:26:38;;;;;;;10.32;8.07;;;;;;;37.39;36.20;97878.72;5005592;28;20210;-66
2021/08/15 10:29:08;;;;;;;11.15;7.43;;;;;;;37.60;35.53;97878.22;5006859;28;20214;-65
2021/08/15 10:32:06;;;;;;;10.18;8.15;;;;;;;37.76;34.71;97876.00;5005491;28;20211;-65
2021/08/15 10:35:16;;;;;;;14.45;7.95;;;;;;;38.25;34.13;97876.56;5007748;28;20219;-65
2021/08/15 10:37:46;;;;;;;8.75;7.68;;;;;;;38.34;34.21;97857.53;5004266;28;20735;-66
2021/08/15 10:40:56;;;;;;;10.80;7.60;;;;;;;39.35;32.94;97863.09;5006598;28;20235;-66
2021/08/15 10:44:00;;;;;;;10.73;8.18;;;;;;;37.80;34.31;97865.72;4996679;28;20699;-67
2021/08/15 10:46:28;;;;;;;12.80;7.60;;;;;;;36.99;36.64;97847.13;5002079;28;20234;-66
2021/08/15 10:48:57;;;;;;;13.13;8.38;;;;;;;37.58;35.27;97847.94;5003996;28;20726;-66
2021/08/15 10:51:40;;;;;;;10.77;7.55;;;;;;;38.67;32.75;97858.22;4998927;28;20208;-66
2021/08/15 10:54:09;;;;;;;11.98;8.05;;;;;;;37.34;35.06;97859.56;4997066;28;20208;-66
2021/08/15 10:56:57;;;;;;;11.95;7.80;;;;;;;39.14;32.46;97860.94;5005061;28;20208;-66
2021/08/15 10:59:34;;;;;;;10.55;7.60;;;;;;;36.27;37.11;97843.59;5002142;28;20204;-66
2021/08/15 11:02:12;;;;;;;10.80;7.78;;;;;;;38.02;33.92;97843.28;5005318;28;20699;-66
2021/08/15 11:04:42;;;;;;;13.07;7.45;;;;;;;38.27;34.07;97838.75;5000331;28;20212;-66
2021/08/15 11:07:09;;;;;;;9.98;7.53;;;;;;;36.95;36.03;97829.56;5001194;28;20230;-66
2021/08/15 11:09:56;;;;;;;10.70;7.80;;;;;;;36.99;36.45;97836.00;4999019;28;20219;-66
2021/08/15 11:12:23;;;;;;;10.52;7.78;;;;;;;36.86;37.00;97829.03;5000665;28;20207;-66
2021/08/15 11:15:06;;;;;;;10.30;7.68;;;;;;;37.59;35.45;97824.47;5004981;28;20631;-66
2021/08/15 11:17:35;;;;;;;11.68;7.93;;;;;;;36.47;37.76;97814.53;5003438;28;20219;-66
2021/08/15 11:20:31;;;;;;;11.82;7.70;;;;;;;37.63;36.08;97807.81;5004389;28;20286;-66
2021/08/15 11:23:07;;;;;;;9.73;7.13;;;;;;;38.25;34.34;97807.63;4992810;28;20223;-66
2021/08/15 11:25:36;;;;;;;13.10;8.43;;;;;;;37.02;35.93;97802.66;5004248;28;20574;-66
2021/08/15 11:28:03;;;;;;;12.20;8.05;;;;;;;37.09;35.36;97799.16;5006130;28;20245;-66
2021/08/15 11:30:31;;;;;;;10.38;7.65;;;;;;;36.50;37.32;97783.22;5004248;28;20204;-66
2021/08/15 11:33:00;;;;;;;12.73;8.07;;;;;;;37.50;36.00;97778.59;5005725;28;20218;-66
2021/08/15 11:35:32;;;;;;;12.13;7.30;;;;;;;36.46;37.28;97770.44;5006556;28;20208;-66